createdAt,value
2019-01-15T00:01:49.584Z,3.73
2019-01-15T00:04:20.510Z,3.72
2019-01-15T00:06:51.430Z,3.76
2019-01-15T00:09:22.154Z,3.80
2019-01-15T00:11:53.030Z,3.80
2019-01-15T00:14:23.861Z,3.73
2019-01-15T00:16:54.539Z,3.70
2019-01-15T00:19:25.426Z,3.72
2019-01-15T00:21:56.108Z,3.72
2019-01-15T00:24:26.863Z,3.71
2019-01-15T00:26:57.406Z,3.73
2019-01-15T00:29:27.877Z,3.67
2019-01-15T00:31:58.388Z,3.67
2019-01-15T00:34:28.877Z,3.61
2019-01-15T00:36:59.473Z,3.62
2019-01-15T00:39:29.945Z,3.66
2019-01-15T00:42:00.465Z,3.68
2019-01-15T00:44:30.996Z,3.70
2019-01-15T00:47:01.765Z,3.65
2019-01-15T00:49:32.239Z,3.63
2019-01-15T00:52:02.825Z,3.60
2019-01-15T00:54:33.296Z,3.56
2019-01-15T00:57:03.925Z,3.59
2019-01-15T00:59:34.477Z,3.64
2019-01-15T01:02:05.165Z,3.63
2019-01-15T01:04:35.737Z,3.62
2019-01-15T01:07:06.541Z,3.56
2019-01-15T01:09:37.001Z,3.51
2019-01-15T01:12:07.537Z,3.58
2019-01-15T01:14:38.062Z,3.64
2019-01-15T01:17:08.578Z,3.68
2019-01-15T01:19:39.113Z,3.68
2019-01-15T01:22:09.709Z,3.62
2019-01-15T01:24:40.212Z,3.60
2019-01-15T01:27:10.846Z,3.52
2019-01-15T01:29:41.321Z,3.51
2019-01-15T01:32:12.551Z,3.55
2019-01-15T01:34:43.020Z,3.61
2019-01-15T01:37:13.575Z,3.70
2019-01-15T01:39:44.059Z,3.65
2019-01-15T01:42:14.673Z,3.63
2019-01-15T01:44:45.465Z,3.76
2019-01-15T01:47:16.403Z,3.79
2019-01-15T01:49:47.032Z,3.84
2019-01-15T01:52:17.818Z,3.84
2019-01-15T01:54:48.606Z,3.82
2019-01-15T01:57:19.518Z,3.82
2019-01-15T01:59:50.339Z,3.75
2019-01-15T02:02:21.242Z,3.68
2019-01-15T02:04:51.715Z,3.69
2019-01-15T02:07:22.426Z,3.63
2019-01-15T02:09:52.895Z,3.63
2019-01-15T02:12:23.531Z,3.64
2019-01-15T02:14:54.115Z,3.62
2019-01-15T02:17:24.652Z,3.61
2019-01-15T02:19:55.139Z,3.58
2019-01-15T02:22:25.684Z,3.59
2019-01-15T02:24:56.164Z,3.56
2019-01-15T02:27:27.972Z,3.55
2019-01-15T02:29:58.444Z,3.54
2019-01-15T02:32:29.013Z,3.44
2019-01-15T02:34:59.499Z,3.35
2019-01-15T02:37:30.599Z,3.30
2019-01-15T02:40:01.504Z,3.37
2019-01-15T02:42:32.190Z,3.41
2019-01-15T02:45:02.835Z,3.36
2019-01-15T02:47:34.350Z,3.31
2019-01-15T02:50:05.944Z,3.33
2019-01-15T02:52:36.754Z,3.32
2019-01-15T02:55:08.542Z,3.34
2019-01-15T02:57:39.322Z,3.32
2019-01-15T03:00:16.759Z,3.33
2019-01-15T03:02:47.967Z,3.42
2019-01-15T03:05:19.054Z,3.39
2019-01-15T03:07:50.348Z,3.43
2019-01-15T03:10:21.770Z,3.48
2019-01-15T03:12:56.412Z,3.54
2019-01-15T03:15:26.387Z,3.57
2019-01-15T03:17:57.315Z,3.60
2019-01-15T03:20:28.096Z,3.65
2019-01-15T03:22:58.878Z,3.67
2019-01-15T03:25:29.628Z,3.66
2019-01-15T03:28:00.554Z,3.64
2019-01-15T03:30:31.404Z,3.62
2019-01-15T03:33:02.300Z,3.61
2019-01-15T03:35:33.073Z,3.57
2019-01-15T03:38:03.973Z,3.50
2019-01-15T03:40:34.890Z,3.48
2019-01-15T03:43:05.961Z,3.42
2019-01-15T03:45:36.736Z,3.43
2019-01-15T03:48:08.003Z,3.38
2019-01-15T03:50:38.650Z,3.39
2019-01-15T03:53:09.722Z,3.38
2019-01-15T03:55:40.515Z,3.37
2019-01-15T03:58:11.267Z,3.40
2019-01-15T04:00:42.162Z,3.39
2019-01-15T04:03:13.430Z,3.41
2019-01-15T04:05:44.172Z,3.43
2019-01-15T04:08:15.456Z,3.44
2019-01-15T04:10:46.221Z,3.46
2019-01-15T04:13:17.381Z,3.43
2019-01-15T04:15:48.137Z,3.41
2019-01-15T04:18:18.919Z,3.42
2019-01-15T04:20:49.709Z,3.49
2019-01-15T04:23:20.564Z,3.53
2019-01-15T04:25:51.440Z,3.47
2019-01-15T04:28:22.243Z,3.51
2019-01-15T04:30:53.020Z,3.54
2019-01-15T04:33:24.103Z,3.53
2019-01-15T04:35:55.022Z,3.52
2019-01-15T04:38:25.814Z,3.54
2019-01-15T04:40:56.593Z,3.55
2019-01-15T04:43:27.352Z,3.55
2019-01-15T04:45:58.026Z,3.47
2019-01-15T04:48:29.018Z,3.42
2019-01-15T04:51:00.007Z,3.41
2019-01-15T04:53:30.544Z,3.37
2019-01-15T04:56:01.114Z,3.29
2019-01-15T04:58:31.646Z,3.25
2019-01-15T05:01:02.114Z,3.23
2019-01-15T05:03:33.014Z,3.22
2019-01-15T05:06:03.613Z,3.22
2019-01-15T05:08:34.264Z,3.25
2019-01-15T05:11:04.742Z,3.26
2019-01-15T05:13:35.267Z,3.22
2019-01-15T05:16:05.733Z,3.18
2019-01-15T05:18:36.282Z,3.14
2019-01-15T05:21:06.762Z,3.09
2019-01-15T05:23:37.866Z,3.12
2019-01-15T05:26:08.784Z,3.09
2019-01-15T05:28:39.776Z,3.09
2019-01-15T05:31:10.619Z,3.16
2019-01-15T05:33:41.427Z,3.12
2019-01-15T05:36:12.186Z,3.08
2019-01-15T05:38:42.969Z,3.00
2019-01-15T05:41:13.653Z,2.94
2019-01-15T05:43:44.532Z,2.99
2019-01-15T05:46:15.172Z,3.00
2019-01-15T05:48:46.462Z,3.02
2019-01-15T05:51:30.942Z,2.96
2019-01-15T05:54:01.505Z,2.93
2019-01-15T05:56:33.352Z,2.98
2019-01-15T05:59:04.249Z,2.95
2019-01-15T06:01:35.107Z,2.96
2019-01-15T06:04:06.370Z,2.99
2019-01-15T06:06:37.119Z,2.97
2019-01-15T06:09:10.428Z,2.98
2019-01-15T06:11:41.215Z,3.02
2019-01-15T06:14:11.801Z,3.04
2019-01-15T06:16:42.269Z,3.05
2019-01-15T06:19:16.336Z,3.07
2019-01-15T06:21:47.263Z,3.06
2019-01-15T06:24:18.234Z,3.10
2019-01-15T06:26:49.257Z,3.08
2019-01-15T06:29:20.286Z,3.05
2019-01-15T06:31:51.216Z,3.08
2019-01-15T06:34:22.313Z,3.06
2019-01-15T06:36:53.082Z,3.08
2019-01-15T06:39:24.085Z,3.09
2019-01-15T06:41:54.966Z,3.12
2019-01-15T06:44:26.031Z,3.15
2019-01-15T06:46:56.964Z,3.19
2019-01-15T06:49:28.045Z,3.25
2019-01-15T06:51:58.927Z,3.29
2019-01-15T06:54:29.834Z,3.29
2019-01-15T06:57:00.711Z,3.32
2019-01-15T06:59:31.613Z,3.35
2019-01-15T07:02:02.394Z,3.38
2019-01-15T07:04:33.387Z,3.37
2019-01-15T07:07:04.461Z,3.37
2019-01-15T07:09:35.446Z,3.33
2019-01-15T07:12:06.589Z,3.32
2019-01-15T07:14:37.627Z,3.30
2019-01-15T07:17:08.438Z,3.27
2019-01-15T07:19:39.593Z,3.20
2019-01-15T07:22:10.407Z,3.17
2019-01-15T07:24:41.374Z,3.17
2019-01-15T07:27:12.178Z,3.16
2019-01-15T07:29:43.082Z,3.15
2019-01-15T07:32:14.069Z,3.15
2019-01-15T07:34:45.150Z,3.14
2019-01-15T07:37:16.027Z,3.16
2019-01-15T07:39:46.977Z,3.18
2019-01-15T07:42:17.928Z,3.18
2019-01-15T07:44:48.921Z,3.17
2019-01-15T07:47:19.810Z,3.16
2019-01-15T07:49:50.746Z,3.08
2019-01-15T07:52:21.724Z,3.12
2019-01-15T07:54:52.958Z,3.16
2019-01-15T07:57:23.658Z,3.18
2019-01-15T07:59:54.543Z,3.10
2019-01-15T08:02:25.320Z,3.03
2019-01-15T08:04:56.379Z,2.99
2019-01-15T08:07:27.197Z,2.92
2019-01-15T08:09:58.097Z,2.87
2019-01-15T08:12:28.882Z,2.81
2019-01-15T08:15:00.100Z,2.83
2019-01-15T08:17:30.945Z,2.87
2019-01-15T08:20:01.831Z,2.87
2019-01-15T08:22:32.638Z,2.89
2019-01-15T08:25:05.139Z,2.99
2019-01-15T08:27:35.998Z,3.00
2019-01-15T08:30:12.916Z,2.98
2019-01-15T08:32:43.918Z,2.99
2019-01-15T08:35:15.798Z,3.00
2019-01-15T08:37:46.861Z,2.96
2019-01-15T08:40:17.812Z,2.94
2019-01-15T08:42:49.366Z,2.90
2019-01-15T08:45:20.494Z,2.90
2019-01-15T08:47:53.314Z,2.90
2019-01-15T08:50:26.685Z,2.93
2019-01-15T08:52:57.668Z,2.91
2019-01-15T08:55:28.446Z,3.05
2019-01-15T08:57:59.428Z,3.20
2019-01-15T09:00:30.426Z,3.46
2019-01-15T09:03:01.584Z,3.57
2019-01-15T09:05:32.528Z,3.71
2019-01-15T09:08:03.592Z,3.87
2019-01-15T09:10:34.571Z,4.05
2019-01-15T09:13:05.780Z,4.16
2019-01-15T09:15:36.564Z,4.31
2019-01-15T09:18:07.847Z,4.34
2019-01-15T09:20:38.748Z,4.41
2019-01-15T09:23:09.562Z,4.46
2019-01-15T09:25:40.441Z,4.50
2019-01-15T09:28:11.422Z,4.61
2019-01-15T09:30:42.301Z,4.70
2019-01-15T09:33:13.345Z,4.73
2019-01-15T09:35:44.191Z,4.77
2019-01-15T09:38:15.573Z,4.81
2019-01-15T09:40:46.460Z,4.86
2019-01-15T09:43:17.546Z,4.95
2019-01-15T09:45:48.358Z,4.97
2019-01-15T09:48:24.237Z,5.02
2019-01-15T09:50:55.206Z,5.06
2019-01-15T09:53:26.126Z,5.11
2019-01-15T09:55:58.122Z,5.24
2019-01-15T09:58:29.301Z,5.25
2019-01-15T10:01:00.238Z,5.20
2019-01-15T10:03:31.235Z,5.23
2019-01-15T10:06:02.099Z,5.33
2019-01-15T10:08:33.068Z,5.41
2019-01-15T10:11:03.970Z,5.55
2019-01-15T10:13:34.971Z,5.49
2019-01-15T10:16:06.074Z,5.53
2019-01-15T10:18:37.049Z,5.58
2019-01-15T10:21:07.750Z,5.61
2019-01-15T10:23:38.724Z,5.71
2019-01-15T10:26:09.418Z,5.90
2019-01-15T10:28:40.701Z,5.94
2019-01-15T10:31:51.425Z,5.97
2019-01-15T10:34:27.074Z,6.09
2019-01-15T10:36:55.862Z,6.03
2019-01-15T10:39:26.826Z,6.12
2019-01-15T10:41:57.797Z,6.09
2019-01-15T10:44:28.587Z,6.03
2019-01-15T10:46:59.847Z,6.06
2019-01-15T10:49:30.756Z,6.09
2019-01-15T10:52:02.214Z,6.04
2019-01-15T10:54:33.047Z,6.08
2019-01-15T10:57:04.034Z,6.15
2019-01-15T10:59:36.099Z,6.19
2019-01-15T11:02:06.980Z,6.19
2019-01-15T11:04:37.916Z,6.18
2019-01-15T11:07:08.969Z,6.16
2019-01-15T11:09:39.814Z,6.29
2019-01-15T11:12:10.758Z,6.19
2019-01-15T11:14:42.101Z,6.25
2019-01-15T11:17:13.027Z,6.42
2019-01-15T11:19:43.872Z,6.41
2019-01-15T11:22:14.852Z,6.47
2019-01-15T11:24:45.758Z,6.47
2019-01-15T11:27:16.604Z,6.47
2019-01-15T11:29:47.479Z,6.45
2019-01-15T11:32:18.246Z,6.42
2019-01-15T11:34:49.150Z,6.56
2019-01-15T11:37:20.130Z,6.56
2019-01-15T11:39:51.033Z,6.53
2019-01-15T11:42:21.917Z,6.53
2019-01-15T11:44:52.901Z,6.61
2019-01-15T11:47:23.576Z,6.74
2019-01-15T11:49:54.620Z,6.72
2019-01-15T11:52:25.369Z,6.72
2019-01-15T11:54:56.638Z,6.73
2019-01-15T11:57:27.529Z,6.67
2019-01-15T11:59:58.797Z,6.73
2019-01-15T12:03:03.719Z,6.72
2019-01-15T12:05:56.266Z,6.79
2019-01-15T12:08:45.122Z,6.78
2019-01-15T12:11:33.879Z,6.75
2019-01-15T12:14:18.540Z,6.73
2019-01-15T12:17:17.640Z,6.83
2019-01-15T12:20:22.585Z,6.84
2019-01-15T12:23:15.529Z,6.86
2019-01-15T12:25:57.037Z,6.87
2019-01-15T12:28:40.857Z,6.81
2019-01-15T12:31:34.016Z,6.80
2019-01-15T12:34:24.104Z,6.91
2019-01-15T12:37:12.862Z,6.91
2019-01-15T12:40:02.129Z,7.01
2019-01-15T12:43:10.661Z,7.04
2019-01-15T12:45:59.713Z,7.05
2019-01-15T12:48:48.171Z,7.08
2019-01-15T12:51:32.721Z,7.02
2019-01-15T12:54:26.602Z,7.03
2019-01-15T12:57:19.316Z,7.02
2019-01-15T13:00:05.653Z,7.07
2019-01-15T13:03:02.080Z,7.06
2019-01-15T13:05:58.008Z,7.05
2019-01-15T13:08:57.206Z,7.01
2019-01-15T13:11:53.130Z,6.99
2019-01-15T13:14:45.984Z,6.98
2019-01-15T13:17:38.732Z,6.93
2019-01-15T13:20:29.742Z,6.89
2019-01-15T13:23:11.145Z,6.85
2019-01-15T13:25:59.779Z,6.88
2019-01-15T13:29:01.865Z,6.91
2019-01-15T13:31:50.502Z,7.00
2019-01-15T13:34:40.385Z,7.04
2019-01-15T13:37:28.732Z,7.04
2019-01-15T13:40:24.451Z,7.05
2019-01-15T13:43:13.002Z,7.08
2019-01-15T13:46:09.340Z,7.01
2019-01-15T13:48:57.990Z,7.05
2019-01-15T13:51:53.819Z,6.98
2019-01-15T13:54:41.135Z,6.99
2019-01-15T13:57:29.835Z,7.00
2019-01-15T14:00:18.136Z,7.00
2019-01-15T14:03:13.857Z,6.91
2019-01-15T14:06:09.678Z,6.90
2019-01-15T14:09:14.784Z,6.94
2019-01-15T14:12:05.167Z,7.04
2019-01-15T14:14:53.662Z,7.10
2019-01-15T14:17:47.846Z,7.14
2019-01-15T14:20:46.335Z,7.15
2019-01-15T14:23:33.143Z,7.17
2019-01-15T14:26:23.024Z,7.24
2019-01-15T14:29:13.009Z,7.29
2019-01-15T14:32:01.765Z,7.32
2019-01-15T14:35:10.741Z,7.33
2019-01-15T14:38:12.175Z,7.33
2019-01-15T14:41:07.579Z,7.27
2019-01-15T14:43:55.844Z,7.20
2019-01-15T14:46:40.004Z,7.26
2019-01-15T14:49:32.278Z,7.24
2019-01-15T14:52:35.029Z,7.24
2019-01-15T14:55:31.580Z,7.29
2019-01-15T14:58:30.324Z,7.30
2019-01-15T15:01:25.521Z,7.25
2019-01-15T15:04:14.997Z,7.23
2019-01-15T15:07:00.385Z,7.26
2019-01-15T15:09:48.285Z,7.23
2019-01-15T15:12:46.966Z,7.20
2019-01-15T15:15:35.884Z,7.16
2019-01-15T15:18:28.129Z,7.14
2019-01-15T15:21:23.773Z,7.07
2019-01-15T15:24:11.831Z,7.04
2019-01-15T15:27:10.452Z,7.05
2019-01-15T15:30:17.993Z,6.98
2019-01-15T15:33:16.440Z,6.94
2019-01-15T15:36:05.877Z,6.98
2019-01-15T15:38:58.000Z,6.97
2019-01-15T15:41:56.490Z,6.85
2019-01-15T15:45:04.061Z,6.88
2019-01-15T15:47:51.143Z,6.82
2019-01-15T15:50:32.829Z,6.82
2019-01-15T15:53:28.282Z,6.77
2019-01-15T15:56:16.729Z,6.73
2019-01-15T15:59:21.220Z,6.62
2019-01-15T16:02:08.181Z,6.55
2019-01-15T16:04:56.644Z,6.54
2019-01-15T16:07:44.962Z,6.44
2019-01-15T16:10:27.040Z,6.35
2019-01-15T16:13:15.525Z,6.28
2019-01-15T16:16:03.817Z,6.23
2019-01-15T16:18:56.065Z,6.23
2019-01-15T16:22:03.780Z,6.18
2019-01-15T16:24:53.353Z,6.18
2019-01-15T16:27:42.793Z,6.10
2019-01-15T16:30:33.613Z,6.09
2019-01-15T16:33:32.206Z,6.09
2019-01-15T16:36:29.138Z,6.09
2019-01-15T16:39:27.963Z,6.18
2019-01-15T16:42:20.674Z,6.22
2019-01-15T16:45:09.329Z,6.24
2019-01-15T16:48:14.877Z,6.27
2019-01-15T16:50:58.412Z,6.28
2019-01-15T16:53:49.011Z,6.18
2019-01-15T16:56:44.895Z,6.16
2019-01-15T16:59:41.270Z,6.21
2019-01-15T17:02:29.721Z,6.23
2019-01-15T17:05:37.726Z,6.21
2019-01-15T17:08:39.559Z,6.17
2019-01-15T17:11:39.304Z,6.06
2019-01-15T17:14:27.470Z,6.01
2019-01-15T17:17:15.795Z,5.92
2019-01-15T17:20:14.480Z,5.93
2019-01-15T17:23:01.498Z,5.86
2019-01-15T17:25:49.858Z,5.79
2019-01-15T17:28:34.811Z,5.75
2019-01-15T17:31:23.670Z,5.68
2019-01-15T17:34:20.107Z,5.59
2019-01-15T17:37:28.320Z,5.55
2019-01-15T17:40:29.830Z,5.40
2019-01-15T17:43:20.679Z,5.24
2019-01-15T17:46:11.908Z,5.12
2019-01-15T17:49:04.441Z,5.04
2019-01-15T17:51:52.889Z,5.08
2019-01-15T17:54:40.723Z,4.97
2019-01-15T17:57:36.648Z,4.90
2019-01-15T18:00:37.906Z,4.91
2019-01-15T18:03:39.661Z,4.84
2019-01-15T18:06:35.276Z,4.77
2019-01-15T18:09:36.773Z,4.67
2019-01-15T18:12:22.003Z,4.72
2019-01-15T18:15:17.953Z,4.69
2019-01-15T18:18:07.713Z,4.67
2019-01-15T18:20:46.430Z,4.64
2019-01-15T18:23:45.183Z,4.55
2019-01-15T18:26:50.157Z,4.58
2019-01-15T18:29:27.342Z,4.56
2019-01-15T18:32:00.003Z,4.50
2019-01-15T18:35:03.245Z,4.54
2019-01-15T18:37:53.125Z,4.52
2019-01-15T18:40:41.332Z,4.59
2019-01-15T18:43:29.706Z,4.62
2019-01-15T18:46:37.522Z,4.64
2019-01-15T18:49:36.022Z,4.65
2019-01-15T18:52:31.657Z,4.69
2019-01-15T18:55:30.194Z,4.69
2019-01-15T18:58:15.783Z,4.68
2019-01-15T19:01:05.546Z,4.68
2019-01-15T19:03:54.202Z,4.69
2019-01-15T19:06:47.113Z,4.72
2019-01-15T19:09:42.710Z,4.71
2019-01-15T19:12:41.395Z,4.77
2019-01-15T19:15:47.017Z,4.81
2019-01-15T19:18:45.612Z,4.83
2019-01-15T19:21:34.121Z,4.81
2019-01-15T19:24:23.725Z,4.79
2019-01-15T19:27:16.189Z,4.76
2019-01-15T19:30:20.851Z,4.75
2019-01-15T19:33:10.273Z,4.81
2019-01-15T19:36:17.888Z,4.83
2019-01-15T19:39:10.546Z,4.77
2019-01-15T19:41:59.169Z,4.77
2019-01-15T19:45:19.157Z,4.73
2019-01-15T19:48:00.609Z,4.69
2019-01-15T19:50:48.947Z,4.66
2019-01-15T19:53:44.608Z,4.64
2019-01-15T19:56:33.261Z,4.63
2019-01-15T19:59:19.872Z,4.68
2019-01-15T20:02:23.714Z,4.75
2019-01-15T20:05:12.434Z,4.77
2019-01-15T20:08:15.423Z,4.76
2019-01-15T20:11:07.763Z,4.78
2019-01-15T20:13:55.834Z,4.77
2019-01-15T20:16:44.510Z,4.79
2019-01-15T20:19:32.681Z,4.79
2019-01-15T20:22:28.828Z,4.78
2019-01-15T20:25:25.369Z,4.81
2019-01-15T20:28:14.853Z,4.77
2019-01-15T20:31:10.886Z,4.79
2019-01-15T20:33:59.602Z,4.76
2019-01-15T20:36:49.200Z,4.74
2019-01-15T20:39:48.307Z,4.76
2019-01-15T20:42:36.754Z,4.77
2019-01-15T20:45:19.771Z,4.76
2019-01-15T20:48:08.027Z,4.75
2019-01-15T20:51:03.214Z,4.71
2019-01-15T20:53:47.779Z,4.67
2019-01-15T20:56:35.993Z,4.58
2019-01-15T20:59:24.371Z,4.58
2019-01-15T21:02:05.452Z,4.50
2019-01-15T21:04:54.103Z,4.45
2019-01-15T21:07:37.944Z,4.42
2019-01-15T21:10:31.717Z,4.38
2019-01-15T21:13:17.913Z,4.42
2019-01-15T21:16:06.465Z,4.40
2019-01-15T21:18:56.449Z,4.39
2019-01-15T21:21:47.155Z,4.33
2019-01-15T21:24:46.252Z,4.34
2019-01-15T21:27:50.644Z,4.32
2019-01-15T21:30:39.637Z,4.22
2019-01-15T21:33:28.088Z,4.13
2019-01-15T21:36:16.765Z,4.13
2019-01-15T21:39:10.535Z,4.16
2019-01-15T21:41:58.729Z,4.17
2019-01-15T21:44:48.864Z,4.23
2019-01-15T21:47:40.018Z,4.21
2019-01-15T21:50:27.826Z,4.19
2019-01-15T21:53:17.297Z,4.14
2019-01-15T21:56:05.632Z,4.05
2019-01-15T21:59:01.433Z,4.07
2019-01-15T22:01:47.834Z,4.04
2019-01-15T22:04:37.925Z,3.99
2019-01-15T22:07:30.774Z,4.00
2019-01-15T22:10:28.337Z,4.04
2019-01-15T22:13:17.706Z,4.05
2019-01-15T22:16:10.663Z,4.04
2019-01-15T22:19:09.351Z,4.05
2019-01-15T22:21:59.213Z,4.05
2019-01-15T22:24:58.334Z,4.07
2019-01-15T22:27:47.089Z,4.08
2019-01-15T22:30:36.052Z,4.07
2019-01-15T22:33:35.048Z,4.05
2019-01-15T22:36:30.869Z,4.06
2019-01-15T22:39:13.254Z,4.08
2019-01-15T22:42:01.830Z,4.09
2019-01-15T22:44:41.675Z,4.05
2019-01-15T22:47:28.105Z,4.01
2019-01-15T22:50:16.526Z,3.93
2019-01-15T22:53:15.318Z,3.77
2019-01-15T22:56:08.290Z,3.64
2019-01-15T22:59:04.298Z,3.56
2019-01-15T23:02:03.519Z,3.45
2019-01-15T23:04:56.354Z,3.40
2019-01-15T23:07:45.108Z,3.35
2019-01-15T23:10:50.969Z,3.27
2019-01-15T23:13:56.007Z,3.25
2019-01-15T23:16:37.080Z,3.21
2019-01-15T23:19:25.735Z,3.15
2019-01-15T23:22:04.471Z,3.11
2019-01-15T23:24:48.195Z,3.08
2019-01-15T23:27:50.160Z,3.08
2019-01-15T23:30:58.577Z,2.99
2019-01-15T23:33:54.249Z,2.91
2019-01-15T23:36:47.868Z,2.90
2019-01-15T23:39:40.515Z,2.81
2019-01-15T23:42:21.591Z,2.70
2019-01-15T23:45:10.348Z,2.68
2019-01-15T23:48:09.509Z,2.63
2019-01-15T23:50:52.898Z,2.63
2019-01-15T23:53:48.598Z,2.65
2019-01-15T23:56:47.492Z,2.62
2019-01-15T23:59:49.981Z,2.55
